sensor_id;sensor_type;location;lat;lon;timestamp;P1;durP1;ratioP1;P2;durP2;ratioP2
4274;SDS011;2151;50.988;11.068;2023-09-30T00:01:45;112.50;;;7.23;;
4274;SDS011;2151;50.988;11.068;2023-09-30T00:04:11;116.67;;;7.67;;
4274;SDS011;2151;50.988;11.068;2023-09-30T00:06:38;117.57;;;7.23;;
4274;SDS011;2151;50.988;11.068;2023-09-30T00:09:06;118.40;;;6.90;;
4274;SDS011;2151;50.988;11.068;2023-09-30T00:11:33;115.37;;;6.83;;
4274;SDS011;2151;50.988;11.068;2023-09-30T00:14:00;117.13;;;6.90;;
4274;SDS011;2151;50.988;11.068;2023-09-30T00:16:28;115.80;;;7.60;;
4274;SDS011;2151;50.988;11.068;2023-09-30T00:18:58;116.73;;;6.50;;
4274;SDS011;2151;50.988;11.068;2023-09-30T00:21:25;115.00;;;6.37;;
4274;SDS011;2151;50.988;11.068;2023-09-30T00:23:52;113.57;;;6.67;;
4274;SDS011;2151;50.988;11.068;2023-09-30T00:26:18;117.77;;;6.50;;
4274;SDS011;2151;50.988;11.068;2023-09-30T00:28:44;116.97;;;6.40;;
4274;SDS011;2151;50.988;11.068;2023-09-30T00:31:11;117.90;;;5.93;;
4274;SDS011;2151;50.988;11.068;2023-09-30T00:33:38;114.93;;;6.13;;
4274;SDS011;2151;50.988;11.068;2023-09-30T00:36:05;114.10;;;6.40;;
4274;SDS011;2151;50.988;11.068;2023-09-30T00:38:33;113.67;;;6.20;;
4274;SDS011;2151;50.988;11.068;2023-09-30T00:40:59;114.80;;;6.10;;
4274;SDS011;2151;50.988;11.068;2023-09-30T00:43:26;114.37;;;6.30;;
4274;SDS011;2151;50.988;11.068;2023-09-30T00:46:02;114.47;;;6.07;;
4274;SDS011;2151;50.988;11.068;2023-09-30T00:48:32;115.70;;;6.30;;
4274;SDS011;2151;50.988;11.068;2023-09-30T00:51:00;114.13;;;6.50;;
4274;SDS011;2151;50.988;11.068;2023-09-30T00:53:26;114.97;;;6.23;;
4274;SDS011;2151;50.988;11.068;2023-09-30T00:55:53;115.27;;;6.30;;
4274;SDS011;2151;50.988;11.068;2023-09-30T00:58:20;115.47;;;6.30;;
4274;SDS011;2151;50.988;11.068;2023-09-30T01:00:48;113.87;;;6.00;;
4274;SDS011;2151;50.988;11.068;2023-09-30T01:03:14;114.07;;;6.00;;
4274;SDS011;2151;50.988;11.068;2023-09-30T01:05:41;114.57;;;6.10;;
4274;SDS011;2151;50.988;11.068;2023-09-30T01:08:09;112.80;;;5.83;;
4274;SDS011;2151;50.988;11.068;2023-09-30T01:10:35;116.87;;;5.83;;
4274;SDS011;2151;50.988;11.068;2023-09-30T01:13:02;112.83;;;5.30;;
4274;SDS011;2151;50.988;11.068;2023-09-30T01:15:29;119.13;;;6.17;;
4274;SDS011;2151;50.988;11.068;2023-09-30T01:17:55;115.00;;;5.50;;
4274;SDS011;2151;50.988;11.068;2023-09-30T01:20:22;114.30;;;6.20;;
4274;SDS011;2151;50.988;11.068;2023-09-30T01:22:49;114.27;;;5.37;;
4274;SDS011;2151;50.988;11.068;2023-09-30T01:25:16;120.00;;;5.70;;
4274;SDS011;2151;50.988;11.068;2023-09-30T01:27:42;114.83;;;5.90;;
4274;SDS011;2151;50.988;11.068;2023-09-30T01:30:09;116.60;;;6.00;;
4274;SDS011;2151;50.988;11.068;2023-09-30T01:32:37;117.20;;;5.77;;
4274;SDS011;2151;50.988;11.068;2023-09-30T01:35:04;114.13;;;5.07;;
4274;SDS011;2151;50.988;11.068;2023-09-30T01:37:30;115.37;;;5.10;;
4274;SDS011;2151;50.988;11.068;2023-09-30T01:39:57;112.57;;;4.97;;
4274;SDS011;2151;50.988;11.068;2023-09-30T01:42:23;114.40;;;5.60;;
4274;SDS011;2151;50.988;11.068;2023-09-30T01:44:50;117.70;;;6.03;;
4274;SDS011;2151;50.988;11.068;2023-09-30T01:47:16;116.10;;;5.27;;
4274;SDS011;2151;50.988;11.068;2023-09-30T01:49:43;112.33;;;5.40;;
4274;SDS011;2151;50.988;11.068;2023-09-30T01:52:09;115.57;;;5.67;;
4274;SDS011;2151;50.988;11.068;2023-09-30T01:54:36;113.17;;;5.17;;
4274;SDS011;2151;50.988;11.068;2023-09-30T01:57:02;114.57;;;5.50;;
4274;SDS011;2151;50.988;11.068;2023-09-30T01:59:29;116.00;;;5.87;;
4274;SDS011;2151;50.988;11.068;2023-09-30T02:01:55;114.57;;;5.33;;
4274;SDS011;2151;50.988;11.068;2023-09-30T02:04:22;113.53;;;5.40;;
4274;SDS011;2151;50.988;11.068;2023-09-30T02:06:49;115.60;;;5.30;;
4274;SDS011;2151;50.988;11.068;2023-09-30T02:09:16;114.93;;;5.97;;
4274;SDS011;2151;50.988;11.068;2023-09-30T02:11:42;113.77;;;5.33;;
4274;SDS011;2151;50.988;11.068;2023-09-30T02:14:09;114.40;;;5.63;;
4274;SDS011;2151;50.988;11.068;2023-09-30T02:16:37;118.50;;;5.57;;
4274;SDS011;2151;50.988;11.068;2023-09-30T02:19:04;113.40;;;5.30;;
4274;SDS011;2151;50.988;11.068;2023-09-30T02:21:30;114.57;;;5.40;;
4274;SDS011;2151;50.988;11.068;2023-09-30T02:23:57;115.23;;;5.10;;
4274;SDS011;2151;50.988;11.068;2023-09-30T02:26:24;115.40;;;5.27;;
4274;SDS011;2151;50.988;11.068;2023-09-30T02:28:53;116.77;;;5.50;;
4274;SDS011;2151;50.988;11.068;2023-09-30T02:31:20;116.37;;;5.93;;
4274;SDS011;2151;50.988;11.068;2023-09-30T02:33:47;115.90;;;5.80;;
4274;SDS011;2151;50.988;11.068;2023-09-30T02:36:13;113.10;;;5.00;;
4274;SDS011;2151;50.988;11.068;2023-09-30T02:38:40;115.37;;;6.00;;
4274;SDS011;2151;50.988;11.068;2023-09-30T02:41:07;113.23;;;5.53;;
4274;SDS011;2151;50.988;11.068;2023-09-30T02:43:33;113.07;;;5.27;;
4274;SDS011;2151;50.988;11.068;2023-09-30T02:46:00;114.23;;;5.40;;
4274;SDS011;2151;50.988;11.068;2023-09-30T02:48:27;115.07;;;6.07;;
4274;SDS011;2151;50.988;11.068;2023-09-30T02:50:53;115.00;;;5.90;;
4274;SDS011;2151;50.988;11.068;2023-09-30T02:53:21;116.70;;;6.00;;
4274;SDS011;2151;50.988;11.068;2023-09-30T02:55:48;114.50;;;5.67;;
4274;SDS011;2151;50.988;11.068;2023-09-30T02:58:16;118.83;;;5.70;;
4274;SDS011;2151;50.988;11.068;2023-09-30T03:00:47;117.50;;;5.70;;
4274;SDS011;2151;50.988;11.068;2023-09-30T03:03:15;118.40;;;5.30;;
4274;SDS011;2151;50.988;11.068;2023-09-30T03:05:42;117.20;;;6.00;;
4274;SDS011;2151;50.988;11.068;2023-09-30T03:08:08;114.27;;;5.50;;
4274;SDS011;2151;50.988;11.068;2023-09-30T03:10:35;115.43;;;5.60;;
4274;SDS011;2151;50.988;11.068;2023-09-30T03:13:08;116.60;;;6.37;;
4274;SDS011;2151;50.988;11.068;2023-09-30T03:15:35;114.27;;;5.40;;
4274;SDS011;2151;50.988;11.068;2023-09-30T03:18:02;119.20;;;6.40;;
4274;SDS011;2151;50.988;11.068;2023-09-30T03:20:30;116.80;;;5.40;;
4274;SDS011;2151;50.988;11.068;2023-09-30T03:22:57;115.63;;;5.77;;
4274;SDS011;2151;50.988;11.068;2023-09-30T03:25:23;114.33;;;5.30;;
4274;SDS011;2151;50.988;11.068;2023-09-30T03:27:51;132.00;;;6.10;;
4274;SDS011;2151;50.988;11.068;2023-09-30T03:30:19;114.90;;;5.87;;
4274;SDS011;2151;50.988;11.068;2023-09-30T03:32:46;121.97;;;6.40;;
4274;SDS011;2151;50.988;11.068;2023-09-30T03:35:13;114.57;;;5.80;;
4274;SDS011;2151;50.988;11.068;2023-09-30T03:37:43;117.43;;;6.10;;
4274;SDS011;2151;50.988;11.068;2023-09-30T03:40:11;115.70;;;5.87;;
4274;SDS011;2151;50.988;11.068;2023-09-30T03:42:45;117.07;;;6.27;;
4274;SDS011;2151;50.988;11.068;2023-09-30T03:45:12;115.87;;;5.87;;
4274;SDS011;2151;50.988;11.068;2023-09-30T03:47:40;121.37;;;6.87;;
4274;SDS011;2151;50.988;11.068;2023-09-30T03:50:08;119.33;;;6.30;;
4274;SDS011;2151;50.988;11.068;2023-09-30T03:52:41;116.17;;;6.33;;
4274;SDS011;2151;50.988;11.068;2023-09-30T03:55:13;116.83;;;6.17;;
4274;SDS011;2151;50.988;11.068;2023-09-30T03:57:41;113.80;;;6.00;;
4274;SDS011;2151;50.988;11.068;2023-09-30T04:00:08;117.07;;;6.33;;
4274;SDS011;2151;50.988;11.068;2023-09-30T04:02:37;116.63;;;5.83;;
4274;SDS011;2151;50.988;11.068;2023-09-30T04:05:04;117.43;;;6.60;;
4274;SDS011;2151;50.988;11.068;2023-09-30T04:07:31;116.80;;;6.93;;
4274;SDS011;2151;50.988;11.068;2023-09-30T04:09:59;116.80;;;6.43;;
4274;SDS011;2151;50.988;11.068;2023-09-30T04:12:30;115.60;;;5.97;;
4274;SDS011;2151;50.988;11.068;2023-09-30T04:14:59;123.40;;;6.57;;
4274;SDS011;2151;50.988;11.068;2023-09-30T04:17:26;116.97;;;6.87;;
4274;SDS011;2151;50.988;11.068;2023-09-30T04:19:53;119.90;;;6.70;;
4274;SDS011;2151;50.988;11.068;2023-09-30T04:22:20;118.40;;;6.10;;
4274;SDS011;2151;50.988;11.068;2023-09-30T04:24:47;116.40;;;6.40;;
4274;SDS011;2151;50.988;11.068;2023-09-30T04:27:19;116.27;;;6.27;;
4274;SDS011;2151;50.988;11.068;2023-09-30T04:29:46;127.50;;;7.37;;
4274;SDS011;2151;50.988;11.068;2023-09-30T04:32:12;122.93;;;6.80;;
4274;SDS011;2151;50.988;11.068;2023-09-30T04:34:39;115.07;;;6.03;;
4274;SDS011;2151;50.988;11.068;2023-09-30T04:37:05;115.43;;;6.20;;
4274;SDS011;2151;50.988;11.068;2023-09-30T04:39:32;116.47;;;6.47;;
4274;SDS011;2151;50.988;11.068;2023-09-30T04:42:02;121.57;;;6.20;;
4274;SDS011;2151;50.988;11.068;2023-09-30T04:44:30;115.80;;;6.30;;
4274;SDS011;2151;50.988;11.068;2023-09-30T04:46:57;116.30;;;6.60;;
4274;SDS011;2151;50.988;11.068;2023-09-30T04:49:23;119.77;;;6.80;;
4274;SDS011;2151;50.988;11.068;2023-09-30T04:51:50;116.90;;;6.33;;
4274;SDS011;2151;50.988;11.068;2023-09-30T04:54:16;117.67;;;6.30;;
4274;SDS011;2151;50.988;11.068;2023-09-30T04:56:43;116.13;;;6.10;;
4274;SDS011;2151;50.988;11.068;2023-09-30T04:59:10;115.80;;;7.00;;
4274;SDS011;2151;50.988;11.068;2023-09-30T05:01:37;116.23;;;6.10;;
4274;SDS011;2151;50.988;11.068;2023-09-30T05:04:03;120.00;;;6.07;;
4274;SDS011;2151;50.988;11.068;2023-09-30T05:06:30;119.53;;;6.43;;
4274;SDS011;2151;50.988;11.068;2023-09-30T05:08:59;117.77;;;6.40;;
4274;SDS011;2151;50.988;11.068;2023-09-30T05:11:26;118.20;;;6.33;;
4274;SDS011;2151;50.988;11.068;2023-09-30T05:13:53;115.67;;;6.30;;
4274;SDS011;2151;50.988;11.068;2023-09-30T05:16:19;116.00;;;5.70;;
4274;SDS011;2151;50.988;11.068;2023-09-30T05:18:46;122.30;;;6.57;;
4274;SDS011;2151;50.988;11.068;2023-09-30T05:21:14;115.50;;;6.17;;
4274;SDS011;2151;50.988;11.068;2023-09-30T05:23:42;118.90;;;6.43;;
4274;SDS011;2151;50.988;11.068;2023-09-30T05:26:08;120.50;;;5.82;;
4274;SDS011;2151;50.988;11.068;2023-09-30T05:28:35;115.50;;;5.90;;
4274;SDS011;2151;50.988;11.068;2023-09-30T05:31:01;117.00;;;5.87;;
4274;SDS011;2151;50.988;11.068;2023-09-30T05:33:29;121.70;;;6.20;;
4274;SDS011;2151;50.988;11.068;2023-09-30T05:35:55;117.77;;;6.30;;
4274;SDS011;2151;50.988;11.068;2023-09-30T05:38:23;120.27;;;6.70;;
4274;SDS011;2151;50.988;11.068;2023-09-30T05:40:50;123.93;;;6.63;;
4274;SDS011;2151;50.988;11.068;2023-09-30T05:43:17;115.40;;;6.60;;
4274;SDS011;2151;50.988;11.068;2023-09-30T05:45:43;119.47;;;6.90;;
4274;SDS011;2151;50.988;11.068;2023-09-30T05:48:16;118.10;;;6.20;;
4274;SDS011;2151;50.988;11.068;2023-09-30T05:50:42;116.90;;;6.30;;
4274;SDS011;2151;50.988;11.068;2023-09-30T05:53:10;117.00;;;7.40;;
4274;SDS011;2151;50.988;11.068;2023-09-30T05:55:40;117.90;;;6.47;;
4274;SDS011;2151;50.988;11.068;2023-09-30T05:58:14;116.47;;;7.30;;
4274;SDS011;2151;50.988;11.068;2023-09-30T06:00:45;117.30;;;7.27;;
4274;SDS011;2151;50.988;11.068;2023-09-30T06:03:11;127.77;;;8.10;;
4274;SDS011;2151;50.988;11.068;2023-09-30T06:05:38;124.97;;;9.73;;
4274;SDS011;2151;50.988;11.068;2023-09-30T06:08:07;123.80;;;8.33;;
4274;SDS011;2151;50.988;11.068;2023-09-30T06:10:36;121.57;;;8.57;;
4274;SDS011;2151;50.988;11.068;2023-09-30T06:13:10;121.83;;;8.73;;
4274;SDS011;2151;50.988;11.068;2023-09-30T06:15:38;122.90;;;8.23;;
4274;SDS011;2151;50.988;11.068;2023-09-30T06:18:06;120.40;;;7.90;;
4274;SDS011;2151;50.988;11.068;2023-09-30T06:20:32;125.33;;;7.20;;
4274;SDS011;2151;50.988;11.068;2023-09-30T06:22:59;121.97;;;7.00;;
4274;SDS011;2151;50.988;11.068;2023-09-30T06:25:29;122.10;;;7.13;;
4274;SDS011;2151;50.988;11.068;2023-09-30T06:27:57;116.17;;;6.90;;
4274;SDS011;2151;50.988;11.068;2023-09-30T06:30:25;116.57;;;6.83;;
4274;SDS011;2151;50.988;11.068;2023-09-30T06:32:57;121.00;;;6.57;;
4274;SDS011;2151;50.988;11.068;2023-09-30T06:35:29;116.23;;;6.43;;
4274;SDS011;2151;50.988;11.068;2023-09-30T06:38:03;125.93;;;7.47;;
4274;SDS011;2151;50.988;11.068;2023-09-30T06:40:31;119.30;;;7.07;;
4274;SDS011;2151;50.988;11.068;2023-09-30T06:42:58;118.27;;;7.10;;
4274;SDS011;2151;50.988;11.068;2023-09-30T06:45:24;125.57;;;6.90;;
4274;SDS011;2151;50.988;11.068;2023-09-30T06:47:51;116.60;;;6.13;;
4274;SDS011;2151;50.988;11.068;2023-09-30T06:50:17;116.60;;;6.50;;
4274;SDS011;2151;50.988;11.068;2023-09-30T06:52:44;117.80;;;6.57;;
4274;SDS011;2151;50.988;11.068;2023-09-30T06:55:16;127.03;;;7.17;;
4274;SDS011;2151;50.988;11.068;2023-09-30T06:57:45;117.90;;;7.00;;
4274;SDS011;2151;50.988;11.068;2023-09-30T07:00:13;117.77;;;7.17;;
4274;SDS011;2151;50.988;11.068;2023-09-30T07:02:40;119.67;;;7.13;;
4274;SDS011;2151;50.988;11.068;2023-09-30T07:05:08;117.60;;;6.50;;
4274;SDS011;2151;50.988;11.068;2023-09-30T07:07:35;117.80;;;6.90;;
4274;SDS011;2151;50.988;11.068;2023-09-30T07:10:02;117.57;;;6.70;;
4274;SDS011;2151;50.988;11.068;2023-09-30T07:12:30;119.33;;;6.53;;
4274;SDS011;2151;50.988;11.068;2023-09-30T07:14:58;120.10;;;6.67;;
4274;SDS011;2151;50.988;11.068;2023-09-30T07:17:25;121.87;;;6.97;;
4274;SDS011;2151;50.988;11.068;2023-09-30T07:19:51;126.50;;;7.13;;
4274;SDS011;2151;50.988;11.068;2023-09-30T07:22:18;119.73;;;7.00;;
4274;SDS011;2151;50.988;11.068;2023-09-30T07:25:00;123.80;;;7.00;;
4274;SDS011;2151;50.988;11.068;2023-09-30T07:27:27;120.27;;;7.30;;
4274;SDS011;2151;50.988;11.068;2023-09-30T07:29:54;118.27;;;6.67;;
4274;SDS011;2151;50.988;11.068;2023-09-30T07:32:20;120.70;;;7.07;;
4274;SDS011;2151;50.988;11.068;2023-09-30T07:34:50;120.40;;;7.03;;
4274;SDS011;2151;50.988;11.068;2023-09-30T07:37:17;123.47;;;7.90;;
4274;SDS011;2151;50.988;11.068;2023-09-30T07:39:47;118.03;;;6.80;;
4274;SDS011;2151;50.988;11.068;2023-09-30T07:42:13;124.77;;;7.53;;
4274;SDS011;2151;50.988;11.068;2023-09-30T07:44:40;122.77;;;7.33;;
4274;SDS011;2151;50.988;11.068;2023-09-30T07:47:06;127.53;;;7.20;;
4274;SDS011;2151;50.988;11.068;2023-09-30T07:49:32;128.70;;;8.70;;
4274;SDS011;2151;50.988;11.068;2023-09-30T07:51:59;119.23;;;7.23;;
4274;SDS011;2151;50.988;11.068;2023-09-30T07:54:26;123.07;;;7.30;;
4274;SDS011;2151;50.988;11.068;2023-09-30T07:56:57;118.47;;;6.60;;
4274;SDS011;2151;50.988;11.068;2023-09-30T07:59:25;119.90;;;6.83;;
4274;SDS011;2151;50.988;11.068;2023-09-30T08:01:52;126.83;;;7.10;;
4274;SDS011;2151;50.988;11.068;2023-09-30T08:04:19;129.67;;;7.40;;
4274;SDS011;2151;50.988;11.068;2023-09-30T08:06:46;120.63;;;7.40;;
4274;SDS011;2151;50.988;11.068;2023-09-30T08:09:15;119.27;;;7.40;;
4274;SDS011;2151;50.988;11.068;2023-09-30T08:11:42;118.37;;;7.07;;
4274;SDS011;2151;50.988;11.068;2023-09-30T08:14:09;118.70;;;7.10;;
4274;SDS011;2151;50.988;11.068;2023-09-30T08:16:37;120.10;;;7.13;;
4274;SDS011;2151;50.988;11.068;2023-09-30T08:19:04;119.33;;;7.07;;
4274;SDS011;2151;50.988;11.068;2023-09-30T08:21:31;121.27;;;7.37;;
4274;SDS011;2151;50.988;11.068;2023-09-30T08:23:58;122.17;;;7.77;;
4274;SDS011;2151;50.988;11.068;2023-09-30T08:26:24;119.43;;;8.13;;
4274;SDS011;2151;50.988;11.068;2023-09-30T08:28:51;121.07;;;7.97;;
4274;SDS011;2151;50.988;11.068;2023-09-30T08:31:17;120.50;;;8.13;;
4274;SDS011;2151;50.988;11.068;2023-09-30T08:33:44;123.27;;;8.87;;
4274;SDS011;2151;50.988;11.068;2023-09-30T08:36:12;120.80;;;8.60;;
4274;SDS011;2151;50.988;11.068;2023-09-30T08:38:39;120.40;;;9.70;;
4274;SDS011;2151;50.988;11.068;2023-09-30T08:41:06;122.50;;;9.77;;
4274;SDS011;2151;50.988;11.068;2023-09-30T08:43:37;121.50;;;9.77;;
4274;SDS011;2151;50.988;11.068;2023-09-30T08:46:05;119.70;;;9.00;;
4274;SDS011;2151;50.988;11.068;2023-09-30T08:48:33;121.50;;;10.10;;
4274;SDS011;2151;50.988;11.068;2023-09-30T08:51:00;121.27;;;9.20;;
4274;SDS011;2151;50.988;11.068;2023-09-30T08:53:26;121.83;;;8.50;;
4274;SDS011;2151;50.988;11.068;2023-09-30T08:55:55;123.17;;;8.87;;
4274;SDS011;2151;50.988;11.068;2023-09-30T08:58:27;126.37;;;9.20;;
4274;SDS011;2151;50.988;11.068;2023-09-30T09:00:55;119.87;;;8.30;;
4274;SDS011;2151;50.988;11.068;2023-09-30T09:03:23;125.97;;;8.20;;
4274;SDS011;2151;50.988;11.068;2023-09-30T09:05:55;123.07;;;8.77;;
4274;SDS011;2151;50.988;11.068;2023-09-30T09:08:26;123.73;;;9.10;;
4274;SDS011;2151;50.988;11.068;2023-09-30T09:10:53;122.93;;;9.00;;
4274;SDS011;2151;50.988;11.068;2023-09-30T09:13:21;123.87;;;8.97;;
4274;SDS011;2151;50.988;11.068;2023-09-30T09:15:47;120.30;;;8.70;;
4274;SDS011;2151;50.988;11.068;2023-09-30T09:18:30;123.17;;;9.80;;
4274;SDS011;2151;50.988;11.068;2023-09-30T09:23:43;141.63;;;10.80;;
4274;SDS011;2151;50.988;11.068;2023-09-30T09:26:12;119.70;;;8.00;;
4274;SDS011;2151;50.988;11.068;2023-09-30T09:28:48;121.17;;;8.80;;
4274;SDS011;2151;50.988;11.068;2023-09-30T09:31:25;119.47;;;8.03;;
4274;SDS011;2151;50.988;11.068;2023-09-30T09:33:52;125.07;;;8.73;;
4274;SDS011;2151;50.988;11.068;2023-09-30T09:36:19;118.53;;;7.50;;
4274;SDS011;2151;50.988;11.068;2023-09-30T09:38:49;123.80;;;7.63;;
4274;SDS011;2151;50.988;11.068;2023-09-30T09:41:20;123.20;;;6.87;;
4274;SDS011;2151;50.988;11.068;2023-09-30T09:43:49;122.10;;;7.10;;
4274;SDS011;2151;50.988;11.068;2023-09-30T09:46:17;120.93;;;7.67;;
4274;SDS011;2151;50.988;11.068;2023-09-30T09:48:44;118.70;;;5.90;;
4274;SDS011;2151;50.988;11.068;2023-09-30T09:51:12;120.13;;;6.83;;
4274;SDS011;2151;50.988;11.068;2023-09-30T09:53:40;122.00;;;6.20;;
4274;SDS011;2151;50.988;11.068;2023-09-30T09:56:10;116.70;;;5.50;;
4274;SDS011;2151;50.988;11.068;2023-09-30T09:58:39;119.37;;;5.70;;
4274;SDS011;2151;50.988;11.068;2023-09-30T10:01:07;123.67;;;7.00;;
4274;SDS011;2151;50.988;11.068;2023-09-30T10:03:37;115.37;;;5.40;;
4274;SDS011;2151;50.988;11.068;2023-09-30T10:06:04;118.67;;;5.63;;
4274;SDS011;2151;50.988;11.068;2023-09-30T10:08:41;117.93;;;5.70;;
4274;SDS011;2151;50.988;11.068;2023-09-30T10:11:09;112.30;;;5.20;;
4274;SDS011;2151;50.988;11.068;2023-09-30T10:13:58;115.50;;;4.63;;
4274;SDS011;2151;50.988;11.068;2023-09-30T10:19:09;115.30;;;5.53;;
4274;SDS011;2151;50.988;11.068;2023-09-30T10:21:38;113.03;;;5.10;;
4274;SDS011;2151;50.988;11.068;2023-09-30T10:33:04;113.67;;;5.50;;
4274;SDS011;2151;50.988;11.068;2023-09-30T10:35:10;116.60;;;6.10;;
4274;SDS011;2151;50.988;11.068;2023-09-30T10:37:37;114.70;;;5.03;;
4274;SDS011;2151;50.988;11.068;2023-09-30T10:40:04;118.03;;;5.27;;
4274;SDS011;2151;50.988;11.068;2023-09-30T10:42:44;116.57;;;5.10;;
4274;SDS011;2151;50.988;11.068;2023-09-30T10:48:17;119.30;;;4.63;;
4274;SDS011;2151;50.988;11.068;2023-09-30T10:50:49;114.57;;;5.67;;
4274;SDS011;2151;50.988;11.068;2023-09-30T10:53:17;116.87;;;5.37;;
4274;SDS011;2151;50.988;11.068;2023-09-30T10:55:46;113.07;;;5.20;;
4274;SDS011;2151;50.988;11.068;2023-09-30T10:58:13;110.63;;;4.10;;
4274;SDS011;2151;50.988;11.068;2023-09-30T11:00:51;110.60;;;4.43;;
4274;SDS011;2151;50.988;11.068;2023-09-30T11:03:19;109.37;;;4.60;;
4274;SDS011;2151;50.988;11.068;2023-09-30T11:05:50;113.87;;;4.90;;
4274;SDS011;2151;50.988;11.068;2023-09-30T11:08:37;109.50;;;4.47;;
4274;SDS011;2151;50.988;11.068;2023-09-30T11:11:04;114.57;;;4.77;;
4274;SDS011;2151;50.988;11.068;2023-09-30T11:13:32;109.87;;;5.17;;
4274;SDS011;2151;50.988;11.068;2023-09-30T11:16:01;108.80;;;3.90;;
4274;SDS011;2151;50.988;11.068;2023-09-30T11:18:28;110.60;;;4.30;;
4274;SDS011;2151;50.988;11.068;2023-09-30T11:23:31;110.47;;;5.00;;
4274;SDS011;2151;50.988;11.068;2023-09-30T11:25:58;109.90;;;4.60;;
4274;SDS011;2151;50.988;11.068;2023-09-30T11:28:25;107.57;;;4.10;;
4274;SDS011;2151;50.988;11.068;2023-09-30T11:30:59;111.87;;;4.43;;
4274;SDS011;2151;50.988;11.068;2023-09-30T11:33:26;115.97;;;4.87;;
4274;SDS011;2151;50.988;11.068;2023-09-30T11:36:03;112.40;;;4.40;;
4274;SDS011;2151;50.988;11.068;2023-09-30T11:38:30;109.73;;;4.43;;
4274;SDS011;2151;50.988;11.068;2023-09-30T11:41:04;108.77;;;4.20;;
4274;SDS011;2151;50.988;11.068;2023-09-30T11:43:33;108.37;;;4.10;;
4274;SDS011;2151;50.988;11.068;2023-09-30T11:46:04;110.87;;;4.60;;
4274;SDS011;2151;50.988;11.068;2023-09-30T11:48:32;107.67;;;3.90;;
4274;SDS011;2151;50.988;11.068;2023-09-30T11:50:59;111.03;;;4.90;;
4274;SDS011;2151;50.988;11.068;2023-09-30T11:53:28;108.87;;;3.97;;
4274;SDS011;2151;50.988;11.068;2023-09-30T11:55:57;109.57;;;4.80;;
4274;SDS011;2151;50.988;11.068;2023-09-30T11:58:28;113.80;;;4.50;;
4274;SDS011;2151;50.988;11.068;2023-09-30T12:00:54;107.90;;;4.40;;
4274;SDS011;2151;50.988;11.068;2023-09-30T12:03:21;110.13;;;4.00;;
4274;SDS011;2151;50.988;11.068;2023-09-30T12:05:48;109.37;;;4.10;;
4274;SDS011;2151;50.988;11.068;2023-09-30T12:08:14;111.33;;;4.47;;
4274;SDS011;2151;50.988;11.068;2023-09-30T12:10:41;107.97;;;3.87;;
4274;SDS011;2151;50.988;11.068;2023-09-30T12:13:07;111.37;;;4.30;;
4274;SDS011;2151;50.988;11.068;2023-09-30T12:15:33;112.13;;;4.10;;
4274;SDS011;2151;50.988;11.068;2023-09-30T12:18:00;110.23;;;4.33;;
4274;SDS011;2151;50.988;11.068;2023-09-30T12:20:26;113.20;;;4.17;;
4274;SDS011;2151;50.988;11.068;2023-09-30T12:22:53;115.30;;;6.00;;
4274;SDS011;2151;50.988;11.068;2023-09-30T12:25:20;111.10;;;4.10;;
4274;SDS011;2151;50.988;11.068;2023-09-30T12:27:48;118.13;;;4.63;;
4274;SDS011;2151;50.988;11.068;2023-09-30T12:30:15;111.63;;;4.00;;
4274;SDS011;2151;50.988;11.068;2023-09-30T12:32:43;110.77;;;4.40;;
4274;SDS011;2151;50.988;11.068;2023-09-30T12:35:09;107.83;;;3.97;;
4274;SDS011;2151;50.988;11.068;2023-09-30T12:37:36;110.97;;;4.83;;
4274;SDS011;2151;50.988;11.068;2023-09-30T12:40:05;110.67;;;4.33;;
4274;SDS011;2151;50.988;11.068;2023-09-30T12:42:33;110.20;;;4.23;;
4274;SDS011;2151;50.988;11.068;2023-09-30T12:45:02;117.33;;;4.90;;
4274;SDS011;2151;50.988;11.068;2023-09-30T12:47:31;107.07;;;4.17;;
4274;SDS011;2151;50.988;11.068;2023-09-30T12:49:58;109.97;;;4.10;;
4274;SDS011;2151;50.988;11.068;2023-09-30T12:52:24;109.77;;;4.20;;
4274;SDS011;2151;50.988;11.068;2023-09-30T12:54:52;109.07;;;4.07;;
4274;SDS011;2151;50.988;11.068;2023-09-30T12:57:18;107.57;;;3.77;;
4274;SDS011;2151;50.988;11.068;2023-09-30T12:59:45;108.77;;;4.20;;
4274;SDS011;2151;50.988;11.068;2023-09-30T13:02:13;111.10;;;4.17;;
4274;SDS011;2151;50.988;11.068;2023-09-30T13:04:40;110.77;;;4.40;;
4274;SDS011;2151;50.988;11.068;2023-09-30T13:07:10;111.00;;;5.60;;
4274;SDS011;2151;50.988;11.068;2023-09-30T13:09:37;116.80;;;4.80;;
4274;SDS011;2151;50.988;11.068;2023-09-30T13:12:04;109.57;;;4.50;;
4274;SDS011;2151;50.988;11.068;2023-09-30T13:14:31;107.67;;;4.20;;
4274;SDS011;2151;50.988;11.068;2023-09-30T13:16:57;112.10;;;4.27;;
4274;SDS011;2151;50.988;11.068;2023-09-30T13:19:24;114.90;;;4.27;;
4274;SDS011;2151;50.988;11.068;2023-09-30T13:21:51;107.83;;;4.17;;
4274;SDS011;2151;50.988;11.068;2023-09-30T13:24:20;110.60;;;4.37;;
4274;SDS011;2151;50.988;11.068;2023-09-30T13:26:48;110.20;;;4.43;;
4274;SDS011;2151;50.988;11.068;2023-09-30T13:29:15;110.70;;;4.17;;
4274;SDS011;2151;50.988;11.068;2023-09-30T13:31:42;111.43;;;4.10;;
4274;SDS011;2151;50.988;11.068;2023-09-30T13:34:09;109.20;;;4.30;;
4274;SDS011;2151;50.988;11.068;2023-09-30T13:36:36;111.60;;;4.40;;
4274;SDS011;2151;50.988;11.068;2023-09-30T13:39:03;111.07;;;4.60;;
4274;SDS011;2151;50.988;11.068;2023-09-30T13:41:35;107.47;;;3.80;;
4274;SDS011;2151;50.988;11.068;2023-09-30T13:44:02;110.60;;;4.53;;
4274;SDS011;2151;50.988;11.068;2023-09-30T13:46:28;109.10;;;4.03;;
4274;SDS011;2151;50.988;11.068;2023-09-30T13:48:57;119.73;;;4.30;;
4274;SDS011;2151;50.988;11.068;2023-09-30T13:51:24;110.77;;;4.43;;
4274;SDS011;2151;50.988;11.068;2023-09-30T13:53:52;113.57;;;4.33;;
4274;SDS011;2151;50.988;11.068;2023-09-30T13:56:19;110.83;;;4.13;;
4274;SDS011;2151;50.988;11.068;2023-09-30T13:58:46;110.00;;;4.10;;
4274;SDS011;2151;50.988;11.068;2023-09-30T14:01:15;113.10;;;4.57;;
4274;SDS011;2151;50.988;11.068;2023-09-30T14:03:41;110.30;;;4.07;;
4274;SDS011;2151;50.988;11.068;2023-09-30T14:06:11;114.07;;;4.10;;
4274;SDS011;2151;50.988;11.068;2023-09-30T14:08:39;115.03;;;4.80;;
4274;SDS011;2151;50.988;11.068;2023-09-30T14:11:05;109.40;;;4.00;;
4274;SDS011;2151;50.988;11.068;2023-09-30T14:13:32;114.80;;;4.33;;
4274;SDS011;2151;50.988;11.068;2023-09-30T14:15:58;109.00;;;4.30;;
4274;SDS011;2151;50.988;11.068;2023-09-30T14:18:25;114.13;;;5.20;;
4274;SDS011;2151;50.988;11.068;2023-09-30T14:20:51;109.40;;;4.30;;
4274;SDS011;2151;50.988;11.068;2023-09-30T14:23:19;113.23;;;4.43;;
4274;SDS011;2151;50.988;11.068;2023-09-30T14:25:45;114.30;;;4.77;;
4274;SDS011;2151;50.988;11.068;2023-09-30T14:28:12;111.17;;;4.10;;
4274;SDS011;2151;50.988;11.068;2023-09-30T14:30:40;108.70;;;4.20;;
4274;SDS011;2151;50.988;11.068;2023-09-30T14:33:07;111.70;;;4.60;;
4274;SDS011;2151;50.988;11.068;2023-09-30T14:35:33;109.47;;;4.07;;
4274;SDS011;2151;50.988;11.068;2023-09-30T14:38:02;109.87;;;4.50;;
4274;SDS011;2151;50.988;11.068;2023-09-30T14:40:29;112.67;;;5.93;;
4274;SDS011;2151;50.988;11.068;2023-09-30T14:42:55;110.13;;;3.87;;
4274;SDS011;2151;50.988;11.068;2023-09-30T14:45:22;109.43;;;4.40;;
4274;SDS011;2151;50.988;11.068;2023-09-30T14:47:48;116.00;;;4.90;;
4274;SDS011;2151;50.988;11.068;2023-09-30T14:50:15;109.27;;;4.30;;
4274;SDS011;2151;50.988;11.068;2023-09-30T14:52:42;110.60;;;4.40;;
4274;SDS011;2151;50.988;11.068;2023-09-30T14:55:08;112.20;;;4.20;;
4274;SDS011;2151;50.988;11.068;2023-09-30T14:57:36;110.87;;;5.23;;